Portada
METAR-TAF:

METAR-TAF

Aeroports :

Karachi, Pakistan

latitud: 24-54N, longitud: 067-08E, altitud: 21 m

Observació

L'informe es va fer fa 49 minuts, a les 12:55 UTC
Vent 8 kt del Nord-Est
Temperatura 23°C
Humitat 20%
Pressió 1020 hPa
Visibilitat: 7000 m

METAR: OPKC 131255Z 05008KT 7000 NSC 23/M01 Q1020 NOSIG

Hora: 18:44 (13:44 UTC)

Pronòstic

L'informe es va fer fa 4 hores i 14 minuts, a les 09:30 UTC
Pronòstic vàlid del 13 a les 12 UTC al 13 a les 21 UTC
Vent 10 kt del Est/Nord-Est amb ràfegues de 20 kt
Visibilitat: 6000 m

TAF: OPKC 130930Z 1312/1321 06010G20KT 6000 NSC

Observacions i pronòstics meteorològics de més de 4000 aeroports (METAR i TAF).

Les estacions disponibles són els punts grocs i vermells al mapa.

Posi el ratolí al punt desitjat per veure el nom de l'estació.

Feu clic per veure les observacions i els pronòstics meteorològics.

Per canviar el mapa: feu clic els botons verds amb una creu de color negre per apropar; al botó verd amb un guió per allunyar la imatge; o en les fletxes verdes per a mapes adjacents.


METAR-TAF: